Ashley, Indiana
Current Conditions -  °F | °C
As of 9:35 PM on Sunday 25 Jan 2015 (Local Time) from KANQ Reporting Station
Overcast Overcast  
Wind Chill: 10°   Ceiling: 3900
Heat Index: 21°   Visibility: 10mi
Dew Point: 12°   Wind: 10mph
Humidity: 68%   Direction: 70°ENE
Pressure: 29.89"   Gusts: NA
Location:  41.53°N, 85.07°W
Report Text: KANQ 260235Z AUTO 07009KT 10SM OVC039 M06/M11 A2989 RMK
Loading
Personal Weather Stations






























Interactive Weather Map New forecast layout! Learn more

10-Day Weather Forecast

Advertisements
Track Severe Weather on mobile